Time;durP1;ratioP1;P1;durP2;ratioP2;P2;SDS_P1;SDS_P2;PMS_P1;PMS_P2;Temp;Humidity;BMP_temperature;BMP_pressure;BME280_temperature;BME280_humidity;BME280_pressure;Samples;Min_cycle;Max_cycle;Signal;HPM_P1;HPM_P2
2022/03/08 00:02:15;;;;;;;0.40;0.40;;;0.10;99.90;;;;;;5012237;28;20449;-65
2022/03/08 00:05:03;;;;;;;0.40;0.40;;;0.10;99.90;;;;;;5012181;28;20994;-65
2022/03/08 00:07:50;;;;;;;0.40;0.40;;;0.10;99.90;;;;;;5012481;28;20802;-65
2022/03/08 00:10:37;;;;;;;0.40;0.40;;;0.10;99.90;;;;;;5012543;28;20462;-65
2022/03/08 00:13:25;;;;;;;0.40;0.40;;;0.00;99.90;;;;;;5011619;28;20521;-65
2022/03/08 00:16:12;;;;;;;0.60;0.60;;;0.00;99.90;;;;;;5011950;28;20957;-66
2022/03/08 00:18:59;;;;;;;0.40;0.40;;;0.00;99.90;;;;;;5012311;28;20989;-66
2022/03/08 00:21:46;;;;;;;0.40;0.40;;;-0.10;99.90;;;;;;5011659;28;20462;-65
2022/03/08 00:24:34;;;;;;;0.40;0.40;;;-0.10;99.90;;;;;;5012582;28;20462;-66
2022/03/08 00:27:20;;;;;;;0.40;0.40;;;-0.10;99.90;;;;;;5013086;28;20938;-65
2022/03/08 00:30:10;;;;;;;0.40;0.40;;;-0.10;99.90;;;;;;5015390;28;20430;-66
2022/03/08 00:32:57;;;;;;;0.40;0.40;;;-0.20;99.90;;;;;;5016277;28;20447;-66
2022/03/08 00:35:44;;;;;;;0.40;0.40;;;-0.20;99.90;;;;;;5015493;28;20446;-66
2022/03/08 00:38:31;;;;;;;0.40;0.40;;;-0.20;99.90;;;;;;5015518;28;20974;-66
2022/03/08 00:41:18;;;;;;;0.40;0.40;;;-0.30;99.90;;;;;;5015172;28;20489;-66
2022/03/08 00:44:06;;;;;;;1.50;1.40;;;-0.20;99.90;;;;;;5015040;28;20745;-65
2022/03/08 00:46:54;;;;;;;0.40;0.40;;;-0.30;99.90;;;;;;5015743;28;20453;-65
2022/03/08 00:49:41;;;;;;;0.40;0.40;;;-0.40;99.90;;;;;;5015432;28;20993;-67
2022/03/08 00:52:28;;;;;;;0.40;0.40;;;-0.40;99.90;;;;;;5014271;28;20867;-66
2022/03/08 00:55:15;;;;;;;0.40;0.40;;;-0.30;99.90;;;;;;5015971;28;20513;-66
2022/03/08 00:58:05;;;;;;;0.40;0.40;;;-0.40;99.90;;;;;;5016027;28;20942;-66
2022/03/08 01:00:52;;;;;;;0.40;0.40;;;-0.40;99.90;;;;;;5015754;28;20528;-66
2022/03/08 01:03:40;;;;;;;0.40;0.40;;;-0.40;99.90;;;;;;5015517;28;20802;-65
2022/03/08 01:06:27;;;;;;;0.40;0.40;;;-0.40;99.90;;;;;;5015787;28;20431;-67
2022/03/08 01:09:14;;;;;;;0.40;0.40;;;-0.40;99.90;;;;;;5016263;28;20524;-65
2022/03/08 01:12:01;;;;;;;0.40;0.40;;;-0.40;99.90;;;;;;5014911;28;20485;-66
2022/03/08 01:14:48;;;;;;;0.40;0.40;;;-0.50;99.90;;;;;;5015119;28;20419;-65
2022/03/08 01:17:37;;;;;;;0.40;0.40;;;-0.50;99.90;;;;;;5020009;28;20427;-65
2022/03/08 01:20:26;;;;;;;0.40;0.40;;;-0.50;99.90;;;;;;5021118;28;20489;-66
2022/03/08 01:23:13;;;;;;;0.40;0.40;;;-0.50;99.90;;;;;;5018248;28;20458;-67
2022/03/08 01:26:00;;;;;;;0.40;0.40;;;-0.50;99.90;;;;;;5018058;28;20450;-67
2022/03/08 01:28:47;;;;;;;0.40;0.40;;;-0.60;99.90;;;;;;5017017;28;20477;-66
2022/03/08 01:31:34;;;;;;;0.40;0.40;;;-0.60;99.90;;;;;;5014273;28;20431;-65
2022/03/08 01:34:20;;;;;;;0.40;0.40;;;-0.60;99.90;;;;;;5013866;28;20533;-66
2022/03/08 01:37:10;;;;;;;0.40;0.40;;;-0.60;99.90;;;;;;5014284;28;20415;-66
2022/03/08 01:39:57;;;;;;;0.40;0.40;;;-0.60;99.90;;;;;;5012998;28;20447;-68
2022/03/08 01:42:46;;;;;;;0.40;0.40;;;-0.60;99.90;;;;;;5014068;28;20450;-67
2022/03/08 01:45:34;;;;;;;0.40;0.40;;;-0.70;99.90;;;;;;5013953;28;20474;-66
2022/03/08 01:48:21;;;;;;;0.40;0.40;;;-0.70;99.90;;;;;;5014108;28;20439;-66
2022/03/08 01:51:08;;;;;;;0.40;0.40;;;-0.70;99.90;;;;;;5014270;28;20431;-67
2022/03/08 01:53:56;;;;;;;0.40;0.40;;;-0.70;99.90;;;;;;5014472;28;20435;-67
2022/03/08 01:56:44;;;;;;;0.40;0.40;;;-0.70;99.90;;;;;;5013701;28;20489;-67
2022/03/08 01:59:32;;;;;;;0.40;0.40;;;-0.80;99.90;;;;;;5013933;28;20423;-67
2022/03/08 02:02:19;;;;;;;0.40;0.40;;;-0.80;99.90;;;;;;5014322;28;20970;-67
2022/03/08 02:05:06;;;;;;;0.40;0.40;;;-0.80;99.90;;;;;;5014836;28;20821;-65
2022/03/08 02:07:54;;;;;;;0.40;0.40;;;-0.80;99.90;;;;;;5015040;28;20430;-65
2022/03/08 02:10:42;;;;;;;0.40;0.40;;;-0.80;99.90;;;;;;5014220;28;20434;-65
2022/03/08 02:13:29;;;;;;;0.40;0.40;;;-0.80;99.90;;;;;;5013881;28;20896;-66
2022/03/08 02:16:16;;;;;;;0.40;0.40;;;-0.90;99.90;;;;;;5013835;28;20430;-68
2022/03/08 02:19:03;;;;;;;0.40;0.40;;;-0.90;99.90;;;;;;5001483;28;20440;-65
2022/03/08 02:21:53;;;;;;;0.40;0.40;;;-1.00;99.90;;;;;;4993922;28;20601;-67
2022/03/08 02:24:40;;;;;;;0.40;0.40;;;-1.00;99.90;;;;;;4994775;28;20501;-65
2022/03/08 02:27:27;;;;;;;0.40;0.40;;;-1.00;99.90;;;;;;4995326;28;20428;-66
2022/03/08 02:30:16;;;;;;;0.40;0.40;;;-1.00;99.90;;;;;;4994771;28;20428;-66
2022/03/08 02:33:02;;;;;;;0.40;0.40;;;-0.90;99.90;;;;;;4993448;28;20444;-66
2022/03/08 02:35:50;;;;;;;0.40;0.40;;;-1.00;99.90;;;;;;4994174;28;20466;-65
2022/03/08 02:38:38;;;;;;;0.40;0.40;;;-1.00;99.90;;;;;;4993774;28;20427;-66
2022/03/08 02:41:25;;;;;;;0.40;0.40;;;-0.90;99.90;;;;;;4993814;28;20440;-66
2022/03/08 02:44:13;;;;;;;0.40;0.40;;;-1.00;99.90;;;;;;4993812;28;20435;-67
2022/03/08 02:47:01;;;;;;;0.40;0.40;;;-1.10;99.90;;;;;;4993957;28;20805;-67
2022/03/08 02:49:48;;;;;;;0.40;0.40;;;-1.10;99.90;;;;;;4998957;28;20427;-66
2022/03/08 02:52:35;;;;;;;0.40;0.40;;;-1.10;99.90;;;;;;4998355;28;20456;-66
2022/03/08 02:55:26;;;;;;;0.40;0.40;;;-1.10;99.90;;;;;;4998275;28;20423;-66
2022/03/08 02:58:13;;;;;;;0.40;0.40;;;-1.10;99.90;;;;;;4998453;28;20847;-65
2022/03/08 03:01:00;;;;;;;0.80;0.80;;;-1.10;99.90;;;;;;4998600;28;20490;-65
2022/03/08 03:03:47;;;;;;;0.40;0.40;;;-1.10;99.90;;;;;;4997654;28;20423;-66
2022/03/08 03:06:35;;;;;;;0.40;0.40;;;-1.10;99.90;;;;;;4999578;28;20955;-66
2022/03/08 03:09:23;;;;;;;0.40;0.40;;;-1.20;99.90;;;;;;4997640;28;21063;-66
2022/03/08 03:12:11;;;;;;;1.50;1.50;;;-1.20;99.90;;;;;;4997466;28;20526;-66
2022/03/08 03:14:58;;;;;;;0.40;0.40;;;-1.20;99.90;;;;;;4998000;28;20420;-66
2022/03/08 03:17:46;;;;;;;0.40;0.40;;;-1.20;99.90;;;;;;4997668;28;20446;-66
2022/03/08 03:20:33;;;;;;;0.40;0.40;;;-1.20;99.90;;;;;;4998061;28;20475;-65
2022/03/08 03:23:20;;;;;;;0.40;0.40;;;-1.30;99.90;;;;;;5020203;23;20625;-66
2022/03/08 03:26:07;;;;;;;0.40;0.40;;;-1.30;99.90;;;;;;5013044;28;20461;-67
2022/03/08 03:28:55;;;;;;;0.50;0.50;;;-1.30;99.90;;;;;;5013292;28;20435;-67
2022/03/08 03:31:42;;;;;;;0.50;0.50;;;-1.30;99.90;;;;;;5011919;28;20446;-67
2022/03/08 03:34:29;;;;;;;0.50;0.50;;;-1.30;99.90;;;;;;5013325;28;20485;-67
2022/03/08 03:37:16;;;;;;;0.50;0.50;;;-1.20;99.90;;;;;;5012713;28;20846;-67
2022/03/08 03:40:03;;;;;;;0.50;0.50;;;-1.30;99.90;;;;;;5012434;28;20430;-67
2022/03/08 03:42:50;;;;;;;0.50;0.50;;;-1.30;99.90;;;;;;5012619;28;20863;-67
2022/03/08 03:45:38;;;;;;;0.50;0.50;;;-1.40;99.90;;;;;;5012162;28;20462;-67
2022/03/08 03:48:25;;;;;;;0.40;0.40;;;-1.30;99.90;;;;;;5012345;28;20438;-67
2022/03/08 03:51:12;;;;;;;0.40;0.40;;;-1.40;99.90;;;;;;5011799;28;20427;-67
2022/03/08 03:53:59;;;;;;;0.50;0.50;;;-1.40;99.90;;;;;;5012278;28;20493;-66
2022/03/08 03:56:46;;;;;;;0.50;0.50;;;-1.50;99.90;;;;;;5012336;28;20467;-66
2022/03/08 03:59:33;;;;;;;0.40;0.40;;;-1.40;99.90;;;;;;5012897;28;20508;-66
2022/03/08 04:02:21;;;;;;;0.50;0.50;;;-1.50;99.90;;;;;;5012706;28;20860;-66
2022/03/08 04:05:10;;;;;;;0.50;0.50;;;-1.40;99.90;;;;;;5015818;28;20463;-66
2022/03/08 04:07:57;;;;;;;0.50;0.50;;;-1.50;99.90;;;;;;5016890;28;20568;-66
2022/03/08 04:10:46;;;;;;;0.50;0.50;;;-1.40;99.90;;;;;;5016589;28;20866;-66
2022/03/08 04:13:33;;;;;;;0.50;0.50;;;-1.50;99.90;;;;;;5016014;28;20442;-68
2022/03/08 04:16:20;;;;;;;0.50;0.50;;;-1.40;99.90;;;;;;5016147;28;20422;-67
2022/03/08 04:19:08;;;;;;;0.50;0.50;;;-1.50;99.90;;;;;;5016692;28;20434;-67
2022/03/08 04:21:55;;;;;;;0.50;0.50;;;-1.50;99.90;;;;;;5016385;28;20501;-66
2022/03/08 04:24:42;;;;;;;0.40;0.40;;;-1.50;99.90;;;;;;5017975;28;20431;-67
2022/03/08 04:27:29;;;;;;;0.50;0.50;;;-1.50;99.90;;;;;;5031769;28;20870;-67
2022/03/08 04:30:16;;;;;;;0.50;0.50;;;-1.50;99.90;;;;;;5031617;28;20434;-67
2022/03/08 04:33:03;;;;;;;0.40;0.40;;;-1.60;99.90;;;;;;5032109;28;20942;-70
2022/03/08 04:35:51;;;;;;;0.40;0.40;;;-1.60;99.90;;;;;;5033541;28;20434;-67
2022/03/08 04:38:38;;;;;;;0.50;0.50;;;-1.60;99.90;;;;;;5033843;28;20430;-67
2022/03/08 04:41:25;;;;;;;0.50;0.50;;;-1.70;99.90;;;;;;5034677;28;20458;-67
2022/03/08 04:44:12;;;;;;;0.50;0.50;;;-1.60;99.90;;;;;;5034455;28;20462;-67
2022/03/08 04:46:59;;;;;;;0.50;0.50;;;-1.70;99.90;;;;;;5035177;28;20419;-68
2022/03/08 04:49:46;;;;;;;0.50;0.50;;;-1.60;99.90;;;;;;5035688;28;20449;-68
2022/03/08 04:52:34;;;;;;;0.40;0.40;;;-1.60;99.90;;;;;;5035348;28;20509;-67
2022/03/08 04:55:21;;;;;;;0.50;0.50;;;-1.60;99.90;;;;;;5035268;28;20423;-67
2022/03/08 04:58:08;;;;;;;0.50;0.50;;;-1.80;99.90;;;;;;5035268;28;20427;-68
2022/03/08 05:00:55;;;;;;;0.50;0.50;;;-1.70;99.90;;;;;;5034945;28;20419;-68
2022/03/08 05:03:42;;;;;;;0.40;0.40;;;-1.60;99.90;;;;;;5016336;28;20974;-68
2022/03/08 05:06:30;;;;;;;0.40;0.40;;;-1.70;99.90;;;;;;5016096;28;20875;-67
2022/03/08 05:09:19;;;;;;;0.40;0.40;;;-1.70;99.90;;;;;;5015496;28;20434;-67
2022/03/08 05:12:08;;;;;;;0.50;0.50;;;-1.70;99.90;;;;;;5015763;28;20455;-67
2022/03/08 05:14:55;;;;;;;0.50;0.50;;;-1.70;99.90;;;;;;5014880;28;20431;-67
2022/03/08 05:17:42;;;;;;;0.50;0.50;;;-1.70;99.90;;;;;;5016002;28;20423;-67
2022/03/08 05:20:28;;;;;;;0.50;0.50;;;-1.70;99.90;;;;;;5015224;28;20437;-67
2022/03/08 05:23:15;;;;;;;0.40;0.40;;;-1.70;99.90;;;;;;5015256;28;20986;-67
2022/03/08 05:26:04;;;;;;;0.50;0.50;;;-1.70;99.90;;;;;;5014762;28;20982;-67
2022/03/08 05:28:51;;;;;;;0.50;0.50;;;-1.70;99.90;;;;;;5015355;28;20423;-67
2022/03/08 05:31:38;;;;;;;0.50;0.50;;;-1.70;99.90;;;;;;5014553;28;20935;-67
2022/03/08 05:34:25;;;;;;;0.50;0.50;;;-1.80;99.90;;;;;;5014946;28;20524;-67
2022/03/08 05:37:12;;;;;;;0.50;0.50;;;-1.70;99.90;;;;;;5015055;28;20868;-67
2022/03/08 05:39:59;;;;;;;0.40;0.40;;;-1.70;99.90;;;;;;5015024;28;20477;-67
2022/03/08 05:42:47;;;;;;;0.43;0.43;;;-1.70;99.90;;;;;;5015686;28;20978;-67
2022/03/08 05:45:34;;;;;;;0.50;0.50;;;-1.70;99.90;;;;;;5014913;28;20556;-67
2022/03/08 05:48:21;;;;;;;0.40;0.40;;;-1.80;99.90;;;;;;5014646;28;20851;-67
2022/03/08 05:51:08;;;;;;;0.50;0.50;;;-1.70;99.90;;;;;;5014484;28;20513;-68
2022/03/08 05:53:55;;;;;;;0.40;0.40;;;-1.70;99.90;;;;;;5014672;28;20482;-67
2022/03/08 05:56:42;;;;;;;0.50;0.50;;;-1.70;99.90;;;;;;5014646;28;20852;-67
2022/03/08 05:59:31;;;;;;;1.63;1.53;;;-1.70;99.90;;;;;;5014285;28;20419;-67
2022/03/08 06:02:18;;;;;;;0.40;0.40;;;-1.70;99.90;;;;;;5014017;28;20537;-67
2022/03/08 06:05:06;;;;;;;0.50;0.50;;;-1.60;99.90;;;;;;5014022;28;20458;-69
2022/03/08 06:07:53;;;;;;;0.40;0.40;;;-1.50;99.90;;;;;;5014237;28;20493;-67
2022/03/08 06:10:40;;;;;;;0.50;0.50;;;-1.50;99.90;;;;;;5014300;28;20426;-67
2022/03/08 06:13:27;;;;;;;0.50;0.50;;;-1.40;99.90;;;;;;5013665;28;20447;-68
2022/03/08 06:16:15;;;;;;;0.43;0.43;;;-1.40;99.90;;;;;;5013823;28;20447;-67
2022/03/08 06:19:02;;;;;;;0.50;0.50;;;-1.20;99.90;;;;;;5014220;28;20427;-67
2022/03/08 06:21:49;;;;;;;0.50;0.50;;;-1.30;99.90;;;;;;5013467;28;20455;-67
2022/03/08 06:24:35;;;;;;;0.40;0.40;;;-1.20;99.90;;;;;;5014081;28;20926;-67
2022/03/08 06:27:23;;;;;;;0.40;0.40;;;-1.20;99.90;;;;;;5014258;28;20469;-67
2022/03/08 06:30:11;;;;;;;0.40;0.40;;;-1.10;99.90;;;;;;5014401;28;20430;-67
2022/03/08 06:32:59;;;;;;;0.50;0.50;;;-1.00;99.90;;;;;;5013930;28;20447;-67
2022/03/08 06:35:46;;;;;;;0.50;0.50;;;-0.90;99.90;;;;;;5014769;28;20525;-67
2022/03/08 06:38:33;;;;;;;0.50;0.50;;;-0.90;99.90;;;;;;5011744;28;20427;-67
2022/03/08 06:41:20;;;;;;;0.40;0.40;;;-0.90;99.90;;;;;;5005984;28;20451;-67
2022/03/08 06:44:08;;;;;;;0.50;0.50;;;-0.80;99.90;;;;;;4994506;28;20451;-67
2022/03/08 06:46:54;;;;;;;0.40;0.40;;;-0.60;99.90;;;;;;4994218;28;20467;-67
2022/03/08 06:49:43;;;;;;;0.40;0.40;;;-0.60;99.90;;;;;;4993855;28;20959;-67
2022/03/08 06:52:30;;;;;;;0.50;0.50;;;-0.50;99.90;;;;;;5002314;28;20455;-67
2022/03/08 06:55:17;;;;;;;0.77;0.77;;;-0.50;99.90;;;;;;5013329;28;20431;-67
2022/03/08 06:58:04;;;;;;;0.50;0.50;;;-0.40;99.90;;;;;;5014144;28;20489;-67
2022/03/08 07:00:51;;;;;;;0.67;0.67;;;-0.30;99.90;;;;;;5012950;28;20428;-67
2022/03/08 07:03:38;;;;;;;0.40;0.40;;;-0.10;99.90;;;;;;5004957;28;20458;-67
2022/03/08 07:06:26;;;;;;;0.40;0.40;;;-0.10;99.90;;;;;;5014707;28;20459;-67
2022/03/08 07:09:13;;;;;;;0.40;0.40;;;0.10;99.90;;;;;;5014779;28;20509;-67
2022/03/08 07:12:00;;;;;;;0.40;0.40;;;0.20;99.90;;;;;;5014838;28;20446;-68
2022/03/08 07:14:47;;;;;;;0.50;0.50;;;0.30;99.90;;;;;;5014228;28;20430;-67
2022/03/08 07:17:34;;;;;;;0.80;0.80;;;0.40;99.90;;;;;;5007707;28;20703;-67
2022/03/08 07:20:21;;;;;;;0.50;0.50;;;0.50;99.90;;;;;;5007553;28;20490;-67
2022/03/08 07:23:09;;;;;;;0.50;0.50;;;0.60;99.90;;;;;;4994116;28;20535;-67
2022/03/08 07:25:56;;;;;;;0.50;0.50;;;0.80;99.90;;;;;;4994472;28;20545;-67
2022/03/08 07:28:43;;;;;;;0.43;0.43;;;0.80;99.90;;;;;;4995927;28;20546;-67
2022/03/08 07:31:30;;;;;;;0.50;0.50;;;0.90;99.90;;;;;;5000758;28;20475;-69
2022/03/08 07:34:17;;;;;;;0.50;0.50;;;1.00;99.90;;;;;;5003210;28;20450;-67
2022/03/08 07:37:04;;;;;;;0.43;0.43;;;1.10;99.90;;;;;;5004526;28;20429;-68
2022/03/08 07:39:54;;;;;;;0.60;0.60;;;1.20;99.90;;;;;;5005227;28;20932;-67
2022/03/08 07:42:41;;;;;;;0.50;0.50;;;1.30;99.90;;;;;;5004308;28;20455;-67
2022/03/08 07:45:28;;;;;;;0.40;0.40;;;1.40;99.90;;;;;;4998986;28;20423;-67
2022/03/08 07:48:17;;;;;;;0.50;0.50;;;1.50;99.90;;;;;;4998479;28;20427;-67
2022/03/08 07:51:05;;;;;;;0.50;0.50;;;1.60;99.90;;;;;;4998021;28;20988;-68
2022/03/08 07:53:52;;;;;;;0.50;0.50;;;1.70;99.90;;;;;;4998311;28;20952;-67
2022/03/08 07:56:40;;;;;;;0.47;0.47;;;1.80;99.90;;;;;;5001122;28;20477;-67
2022/03/08 07:59:28;;;;;;;0.40;0.40;;;2.00;99.90;;;;;;5017657;28;20521;-67
2022/03/08 08:02:15;;;;;;;0.50;0.50;;;2.10;99.90;;;;;;5002262;28;20529;-67
2022/03/08 08:05:02;;;;;;;0.50;0.50;;;2.10;99.90;;;;;;4997649;28;20467;-67
2022/03/08 08:07:49;;;;;;;0.40;0.40;;;2.30;99.90;;;;;;5008661;28;20505;-67
2022/03/08 08:10:36;;;;;;;0.50;0.50;;;2.40;99.90;;;;;;5016040;28;20434;-68
2022/03/08 08:13:24;;;;;;;0.50;0.50;;;2.40;99.90;;;;;;5004826;28;20454;-68
2022/03/08 08:16:11;;;;;;;0.40;0.40;;;2.60;99.90;;;;;;5002528;28;20431;-68
2022/03/08 08:18:59;;;;;;;0.50;0.50;;;2.60;99.90;;;;;;4996908;28;20857;-69
2022/03/08 08:21:46;;;;;;;0.50;0.50;;;2.80;99.90;;;;;;5004104;28;20450;-68
2022/03/08 08:24:32;;;;;;;0.40;0.40;;;2.90;99.90;;;;;;5014837;28;20434;-68
2022/03/08 08:27:19;;;;;;;0.60;0.60;;;3.00;99.90;;;;;;5006833;28;20466;-68
2022/03/08 08:30:10;;;;;;;0.50;0.50;;;3.10;99.90;;;;;;5003053;28;20939;-68
2022/03/08 08:32:57;;;;;;;0.50;0.50;;;3.20;99.90;;;;;;5015961;28;20947;-68
2022/03/08 08:35:44;;;;;;;1.40;1.40;;;3.20;99.90;;;;;;5012074;28;20447;-68
2022/03/08 08:38:31;;;;;;;0.50;0.50;;;3.40;99.90;;;;;;5007771;28;20445;-68
2022/03/08 08:41:18;;;;;;;0.50;0.50;;;3.40;99.90;;;;;;5004906;28;20434;-68
2022/03/08 08:44:05;;;;;;;0.50;0.50;;;3.50;99.90;;;;;;5012970;28;20426;-66
2022/03/08 08:46:53;;;;;;;0.40;0.40;;;3.60;99.90;;;;;;5007062;28;20470;-67
2022/03/08 08:49:40;;;;;;;0.40;0.40;;;3.70;99.90;;;;;;5005679;28;20423;-67
2022/03/08 08:52:27;;;;;;;0.40;0.40;;;3.80;99.90;;;;;;5012265;28;20478;-67
2022/03/08 08:55:14;;;;;;;0.50;0.50;;;3.90;99.90;;;;;;5002752;28;20430;-68
2022/03/08 08:58:01;;;;;;;0.50;0.50;;;4.00;99.90;;;;;;5013561;28;20427;-67
2022/03/08 09:00:48;;;;;;;0.50;0.50;;;4.10;99.90;;;;;;4999449;28;20488;-67
2022/03/08 09:03:36;;;;;;;0.50;0.50;;;4.30;99.90;;;;;;5006805;28;20451;-68
2022/03/08 09:06:23;;;;;;;0.70;0.60;;;4.30;99.90;;;;;;5012375;28;20466;-67
2022/03/08 09:09:10;;;;;;;0.40;0.40;;;4.40;99.90;;;;;;5002501;28;20423;-67
2022/03/08 09:11:57;;;;;;;4.93;4.43;;;4.40;99.90;;;;;;5015620;28;20423;-68
2022/03/08 09:14:44;;;;;;;0.40;0.40;;;4.50;99.90;;;;;;4999137;28;20438;-68
2022/03/08 09:17:31;;;;;;;0.50;0.50;;;4.60;99.90;;;;;;5009356;28;20500;-68
2022/03/08 09:20:19;;;;;;;0.40;0.40;;;4.60;99.90;;;;;;5014199;28;20508;-68
2022/03/08 09:23:07;;;;;;;0.40;0.40;;;4.70;99.90;;;;;;4997115;28;20458;-69
2022/03/08 09:25:54;;;;;;;0.50;0.50;;;4.80;99.90;;;;;;5008016;28;20521;-69
2022/03/08 09:28:41;;;;;;;0.97;0.90;;;5.00;99.90;;;;;;4997708;28;20514;-68
2022/03/08 09:31:28;;;;;;;0.50;0.50;;;4.90;99.90;;;;;;5005947;28;20443;-68
2022/03/08 09:34:15;;;;;;;0.40;0.40;;;5.10;99.90;;;;;;5010188;28;20430;-68
2022/03/08 09:37:03;;;;;;;0.40;0.40;;;5.10;99.90;;;;;;4999556;28;20505;-67
2022/03/08 09:39:50;;;;;;;0.40;0.40;;;5.10;99.90;;;;;;5012159;28;20483;-68
2022/03/08 09:42:37;;;;;;;0.50;0.50;;;5.10;99.90;;;;;;5009503;28;20461;-68
2022/03/08 09:45:24;;;;;;;0.40;0.40;;;5.10;99.90;;;;;;5004828;28;20478;-69
2022/03/08 09:48:11;;;;;;;0.40;0.40;;;5.30;99.90;;;;;;5004677;28;20545;-69
2022/03/08 09:50:59;;;;;;;0.43;0.43;;;5.30;99.90;;;;;;5013857;28;20512;-67
2022/03/08 09:53:52;;;;;;;0.50;0.50;;;5.30;99.90;;;;;;5003700;28;20513;-67
2022/03/08 09:56:39;;;;;;;0.50;0.50;;;5.40;99.90;;;;;;5009817;28;20843;-68
2022/03/08 09:59:29;;;;;;;0.50;0.50;;;5.50;99.90;;;;;;5008452;28;20419;-66
2022/03/08 10:02:16;;;;;;;0.50;0.50;;;5.60;99.90;;;;;;5006810;28;20455;-67
2022/03/08 10:05:04;;;;;;;0.50;0.50;;;5.60;99.90;;;;;;5009103;28;20776;-67
2022/03/08 10:08:08;;;;;;;0.50;0.50;;;5.70;99.90;;;;;;5003485;28;20489;-68
2022/03/08 10:10:59;;;;;;;0.40;0.40;;;5.80;99.90;;;;;;5013578;28;20446;-67
2022/03/08 10:13:49;;;;;;;0.50;0.50;;;5.90;99.90;;;;;;5007733;28;20545;-67
2022/03/08 10:16:43;;;;;;;0.40;0.40;;;6.00;99.90;;;;;;5004650;28;20415;-69
2022/03/08 10:19:30;;;;;;;0.60;0.60;;;6.00;99.90;;;;;;5006487;28;20429;-68
2022/03/08 10:22:25;;;;;;;0.40;0.40;;;6.00;99.90;;;;;;5010187;28;20540;-67
2022/03/08 10:25:14;;;;;;;0.40;0.40;;;6.10;99.90;;;;;;5004080;28;20419;-68
2022/03/08 10:28:06;;;;;;;0.40;0.40;;;6.10;99.90;;;;;;5007270;28;21002;-68
2022/03/08 10:30:53;;;;;;;0.50;0.50;;;6.20;99.90;;;;;;4995922;28;20458;-68
2022/03/08 10:33:40;;;;;;;0.40;0.40;;;6.20;99.90;;;;;;5007192;28;20443;-69
2022/03/08 10:36:28;;;;;;;0.40;0.40;;;6.30;99.90;;;;;;5004392;28;20572;-68
2022/03/08 10:39:16;;;;;;;0.40;0.40;;;6.30;99.90;;;;;;5002488;28;20523;-67
2022/03/08 10:42:04;;;;;;;4.13;1.53;;;6.50;99.90;;;;;;5006736;28;20458;-69
2022/03/08 10:45:00;;;;;;;0.80;0.80;;;6.40;99.90;;;;;;5000156;28;20589;-68
2022/03/08 10:47:51;;;;;;;0.50;0.50;;;6.50;99.90;;;;;;4998463;28;20508;-69
2022/03/08 10:50:38;;;;;;;0.50;0.50;;;6.50;99.90;;;;;;5009514;28;20569;-68
2022/03/08 10:53:26;;;;;;;0.40;0.40;;;6.60;99.90;;;;;;5000528;28;20873;-68
2022/03/08 10:56:20;;;;;;;0.40;0.40;;;6.60;99.90;;;;;;5001179;28;20824;-68
2022/03/08 10:59:07;;;;;;;0.50;0.50;;;6.70;99.90;;;;;;5006402;28;20476;-68
2022/03/08 11:01:56;;;;;;;0.40;0.40;;;6.80;99.90;;;;;;4995046;28;20509;-68
2022/03/08 11:04:43;;;;;;;0.50;0.50;;;6.80;99.90;;;;;;5005681;28;20942;-68
2022/03/08 11:07:30;;;;;;;0.50;0.50;;;6.80;99.90;;;;;;5000649;28;20591;-69
2022/03/08 11:10:18;;;;;;;0.80;0.80;;;6.90;99.90;;;;;;5012164;28;20454;-68
2022/03/08 11:13:06;;;;;;;0.40;0.40;;;6.90;99.90;;;;;;5006659;28;20965;-68
2022/03/08 11:15:53;;;;;;;0.60;0.60;;;6.90;99.90;;;;;;5007732;28;20935;-68
2022/03/08 11:18:45;;;;;;;0.50;0.50;;;7.00;99.90;;;;;;5008524;28;20463;-69
2022/03/08 11:21:34;;;;;;;0.50;0.50;;;7.00;99.90;;;;;;5010565;28;20430;-68
2022/03/08 11:24:22;;;;;;;0.40;0.40;;;7.10;99.90;;;;;;4997243;28;20419;-67
2022/03/08 11:27:09;;;;;;;0.50;0.50;;;7.20;99.90;;;;;;5002090;28;20509;-68
2022/03/08 11:29:56;;;;;;;0.40;0.40;;;7.20;99.90;;;;;;5005573;28;20464;-69
2022/03/08 11:32:51;;;;;;;0.67;0.67;;;7.20;99.90;;;;;;4996841;28;21238;-68
2022/03/08 11:35:49;;;;;;;0.50;0.50;;;7.30;99.90;;;;;;5008922;28;20434;-68
2022/03/08 11:38:36;;;;;;;0.40;0.40;;;7.40;99.90;;;;;;5008925;28;20427;-68
2022/03/08 11:41:26;;;;;;;0.40;0.40;;;7.50;99.90;;;;;;5009549;28;20442;-68
2022/03/08 11:44:21;;;;;;;0.50;0.50;;;7.40;99.90;;;;;;5005920;28;20450;-68
2022/03/08 11:47:14;;;;;;;0.40;0.40;;;7.50;99.90;;;;;;5009278;28;20471;-67
2022/03/08 11:50:01;;;;;;;0.50;0.50;;;7.60;99.90;;;;;;5004308;28;20457;-68
2022/03/08 11:53:04;;;;;;;0.40;0.40;;;7.70;99.90;;;;;;5011812;28;20535;-67
2022/03/08 11:55:55;;;;;;;0.40;0.40;;;7.70;99.90;;;;;;5011626;28;21006;-67
2022/03/08 11:58:44;;;;;;;0.40;0.40;;;7.70;99.90;;;;;;5010531;28;20453;-67
2022/03/08 12:01:32;;;;;;;0.50;0.50;;;7.80;99.90;;;;;;5001080;28;20970;-69
2022/03/08 12:04:20;;;;;;;0.40;0.40;;;7.80;99.90;;;;;;4996438;28;20510;-68
2022/03/08 12:07:25;;;;;;;0.77;0.77;;;7.80;99.90;;;;;;4992071;28;20468;-68
2022/03/08 12:10:26;;;;;;;0.40;0.40;;;7.80;99.90;;;;;;5007458;28;20434;-69
2022/03/08 12:13:14;;;;;;;0.40;0.40;;;7.90;99.90;;;;;;4999058;28;20536;-67
2022/03/08 12:16:14;;;;;;;0.40;0.40;;;7.90;99.90;;;;;;5012203;28;20434;-67
2022/03/08 12:19:04;;;;;;;0.50;0.50;;;7.90;99.90;;;;;;5010791;28;20437;-67
2022/03/08 12:21:57;;;;;;;0.40;0.40;;;7.90;99.90;;;;;;5007249;28;20454;-67
2022/03/08 12:24:47;;;;;;;0.50;0.50;;;8.00;99.90;;;;;;5009814;28;20525;-68
2022/03/08 12:27:49;;;;;;;0.50;0.50;;;8.10;99.90;;;;;;5010483;28;20469;-68
2022/03/08 12:30:40;;;;;;;0.40;0.40;;;8.10;99.90;;;;;;5015077;28;20414;-68
2022/03/08 12:33:27;;;;;;;0.40;0.40;;;8.20;99.90;;;;;;5003548;28;20442;-68
2022/03/08 12:36:20;;;;;;;0.40;0.40;;;8.30;99.90;;;;;;5016520;28;21086;-68
2022/03/08 12:39:08;;;;;;;0.50;0.50;;;8.30;99.90;;;;;;5001666;28;20891;-66
2022/03/08 12:41:58;;;;;;;0.40;0.40;;;8.30;99.90;;;;;;5015544;28;20430;-68
2022/03/08 12:44:52;;;;;;;0.50;0.50;;;8.40;99.90;;;;;;5013592;28;20536;-69
2022/03/08 12:47:41;;;;;;;0.50;0.50;;;7.50;99.90;;;;;;5013295;28;21002;-67
2022/03/08 12:50:31;;;;;;;0.50;0.50;;;8.40;99.90;;;;;;5013714;28;20837;-67
2022/03/08 12:53:19;;;;;;;0.40;0.40;;;8.50;99.90;;;;;;5012726;28;20455;-67
2022/03/08 12:56:13;;;;;;;0.50;0.50;;;8.60;99.90;;;;;;5015009;28;20952;-67
2022/03/08 12:59:04;;;;;;;0.40;0.40;;;8.60;99.90;;;;;;5011733;28;20427;-69
2022/03/08 13:01:52;;;;;;;0.40;0.40;;;8.60;99.90;;;;;;5015287;28;20531;-68
2022/03/08 13:04:41;;;;;;;0.40;0.40;;;8.70;99.90;;;;;;5016687;28;20435;-67
2022/03/08 13:07:28;;;;;;;0.40;0.40;;;8.80;99.90;;;;;;5008169;28;20478;-68
2022/03/08 13:10:16;;;;;;;0.40;0.40;;;8.90;99.90;;;;;;5021111;28;20967;-66
2022/03/08 13:13:05;;;;;;;0.40;0.40;;;9.00;99.90;;;;;;5017054;28;20446;-67
2022/03/08 13:15:53;;;;;;;0.40;0.40;;;9.20;99.90;;;;;;5013475;28;20435;-68
2022/03/08 13:18:42;;;;;;;0.40;0.40;;;9.30;99.90;;;;;;5013001;28;20446;-67
2022/03/08 13:21:28;;;;;;;0.50;0.50;;;9.50;99.90;;;;;;5008321;28;20989;-67
2022/03/08 13:24:15;;;;;;;0.40;0.40;;;9.80;99.90;;;;;;5011094;28;20450;-69
2022/03/08 13:27:03;;;;;;;0.40;0.40;;;10.30;99.90;;;;;;5016786;28;20422;-68
2022/03/08 13:29:50;;;;;;;0.40;0.40;;;10.80;99.90;;;;;;5014612;28;20446;-68
2022/03/08 13:32:36;;;;;;;0.53;0.53;;;11.00;99.90;;;;;;5011796;28;20545;-68
2022/03/08 13:35:25;;;;;;;0.40;0.40;;;11.50;99.90;;;;;;5005510;28;20455;-67
2022/03/08 13:38:14;;;;;;;0.40;0.40;;;12.50;99.90;;;;;;5010562;28;20435;-71
2022/03/08 13:41:03;;;;;;;0.60;0.60;;;13.60;97.60;;;;;;5008750;28;20493;-71
2022/03/08 13:43:52;;;;;;;0.40;0.40;;;14.60;94.50;;;;;;5008993;28;20810;-71
2022/03/08 13:46:42;;;;;;;0.50;0.50;;;15.60;92.50;;;;;;4996807;28;20813;-70
2022/03/08 13:49:30;;;;;;;0.40;0.40;;;16.10;88.50;;;;;;5004204;28;20561;-66
2022/03/08 13:52:20;;;;;;;0.40;0.40;;;16.50;82.10;;;;;;5010130;28;20450;-72
2022/03/08 13:55:07;;;;;;;0.40;0.40;;;17.80;79.60;;;;;;4998861;28;20202;-70
2022/03/08 13:57:58;;;;;;;0.40;0.40;;;18.70;71.70;;;;;;5008531;28;20269;-69
2022/03/08 14:00:46;;;;;;;0.40;0.40;;;19.10;69.50;;;;;;5012479;28;20212;-67
2022/03/08 14:03:38;;;;;;;0.40;0.40;;;19.70;66.00;;;;;;5005337;28;20227;-67
2022/03/08 14:06:28;;;;;;;0.40;0.40;;;20.00;64.10;;;;;;4999506;28;20203;-66
2022/03/08 14:09:18;;;;;;;0.40;0.40;;;20.40;61.60;;;;;;5002604;28;20219;-67
2022/03/08 14:12:06;;;;;;;0.40;0.40;;;20.60;59.70;;;;;;5001192;28;20231;-66
2022/03/08 14:15:02;;;;;;;0.40;0.40;;;20.10;61.00;;;;;;5014129;28;20684;-67
2022/03/08 14:18:05;;;;;;;0.40;0.40;;;19.70;58.80;;;;;;5001703;28;20192;-69
2022/03/08 14:20:52;;;;;;;0.40;0.40;;;19.50;58.60;;;;;;5010448;28;20702;-68
2022/03/08 14:23:43;;;;;;;0.40;0.40;;;19.80;58.40;;;;;;5004111;28;20242;-68
2022/03/08 14:26:31;;;;;;;0.40;0.40;;;19.50;58.00;;;;;;5005429;28;20309;-69
2022/03/08 14:29:19;;;;;;;0.40;0.40;;;19.30;58.10;;;;;;5002793;28;20227;-68
2022/03/08 14:32:08;;;;;;;0.40;0.40;;;19.60;57.60;;;;;;5012902;28;20242;-66
2022/03/08 14:35:07;;;;;;;0.40;0.40;;;20.80;57.70;;;;;;5013988;28;20683;-67
2022/03/08 14:38:05;;;;;;;0.50;0.50;;;22.00;54.40;;;;;;5012154;28;20671;-66
2022/03/08 14:40:52;;;;;;;0.40;0.40;;;23.20;52.90;;;;;;5011356;28;20611;-67